Terminal Aerodrome Forecast
Issued by NWS Wilmington, OH

Current Version | Previous Version | Text Only | Print | Product List | Glossary Off
Versions: 1 2 3 4 5 6 7 8 9 10 11 12 13 14 15 16 17 18 19 20

000
FTUS41 KILN 011900 AAA
TAFCMH
TAF AMD
KCMH 011913Z 0119/0218 27006KT 2SM -SN BR OVC006
      TEMPO 0119/0121 4SM -PLRA BR OVC012
     FM020100 29010KT P6SM OVC015
      TEMPO 0201/0203 4SM BR SCT015 OVC025
     FM021300 32005KT P6SM OVC018
      TEMPO 0214/0218 SCT020=

USA.gov is the U.S. government's official web portal to all federal, state and local government web resources and services.